sensor_id;sensor_type;location;lat;lon;timestamp;pressure;altitude;pressure_sealevel;temperature;humidity
64827;BME280;51265;53.972;12.286;2023-10-08T00:00:26;101283.59;;;9.00;100.00
64827;BME280;51265;53.972;12.286;2023-10-08T00:03:12;101279.75;;;9.01;100.00
64827;BME280;51265;53.972;12.286;2023-10-08T00:05:40;101286.88;;;9.02;100.00
64827;BME280;51265;53.972;12.286;2023-10-08T00:08:07;101267.09;;;9.00;100.00
64827;BME280;51265;53.972;12.286;2023-10-08T00:10:36;101237.97;;;8.98;100.00
64827;BME280;51265;53.972;12.286;2023-10-08T00:13:04;101239.88;;;8.98;100.00
64827;BME280;51265;53.972;12.286;2023-10-08T00:15:34;101233.03;;;8.95;100.00
64827;BME280;51265;53.972;12.286;2023-10-08T00:18:05;101222.03;;;8.95;100.00
64827;BME280;51265;53.972;12.286;2023-10-08T00:20:33;101230.81;;;8.97;100.00
64827;BME280;51265;53.972;12.286;2023-10-08T00:23:09;101220.94;;;8.96;100.00
64827;BME280;51265;53.972;12.286;2023-10-08T00:25:36;101220.38;;;8.94;100.00
64827;BME280;51265;53.972;12.286;2023-10-08T00:28:08;101230.53;;;8.94;100.00
64827;BME280;51265;53.972;12.286;2023-10-08T00:30:40;101227.53;;;8.90;100.00
64827;BME280;51265;53.972;12.286;2023-10-08T00:33:10;101216.28;;;8.92;100.00
64827;BME280;51265;53.972;12.286;2023-10-08T00:35:41;101227.53;;;8.90;100.00
64827;BME280;51265;53.972;12.286;2023-10-08T00:38:08;101226.16;;;8.88;100.00
64827;BME280;51265;53.972;12.286;2023-10-08T00:40:41;101228.06;;;8.92;100.00
64827;BME280;51265;53.972;12.286;2023-10-08T00:46:07;101244.00;;;8.85;100.00
64827;BME280;51265;53.972;12.286;2023-10-08T00:48:52;101219.84;;;8.87;100.00
64827;BME280;51265;53.972;12.286;2023-10-08T00:51:22;101219.84;;;8.87;100.00
64827;BME280;51265;53.972;12.286;2023-10-08T00:53:54;101225.34;;;8.87;100.00
64827;BME280;51265;53.972;12.286;2023-10-08T00:56:26;101231.38;;;8.84;100.00
64827;BME280;51265;53.972;12.286;2023-10-08T00:59:10;101246.75;;;8.85;100.00
64827;BME280;51265;53.972;12.286;2023-10-08T01:01:45;101225.88;;;8.84;100.00
64827;BME280;51265;53.972;12.286;2023-10-08T01:04:18;101211.59;;;8.82;100.00
64827;BME280;51265;53.972;12.286;2023-10-08T01:06:51;101202.25;;;8.83;100.00
64827;BME280;51265;53.972;12.286;2023-10-08T01:09:22;101217.09;;;8.82;100.00
64827;BME280;51265;53.972;12.286;2023-10-08T01:14:53;101201.97;;;8.80;100.00
64827;BME280;51265;53.972;12.286;2023-10-08T01:17:23;101205.00;;;8.78;100.00
64827;BME280;51265;53.972;12.286;2023-10-08T01:19:53;101214.31;;;8.77;100.00
64827;BME280;51265;53.972;12.286;2023-10-08T01:22:46;101230.25;;;8.75;100.00
64827;BME280;51265;53.972;12.286;2023-10-08T01:25:13;101217.88;;;8.72;100.00
64827;BME280;51265;53.972;12.286;2023-10-08T01:27:48;101207.16;;;8.66;100.00
64827;BME280;51265;53.972;12.286;2023-10-08T01:30:14;101215.38;;;8.61;100.00
64827;BME280;51265;53.972;12.286;2023-10-08T01:32:46;101238.44;;;8.60;100.00
64827;BME280;51265;53.972;12.286;2023-10-08T01:35:12;101229.69;;;8.63;100.00
64827;BME280;51265;53.972;12.286;2023-10-08T01:37:50;101225.81;;;8.59;100.00
64827;BME280;51265;53.972;12.286;2023-10-08T01:40:17;101219.50;;;8.58;100.00
64827;BME280;51265;53.972;12.286;2023-10-08T01:42:46;101229.09;;;8.61;100.00
64827;BME280;51265;53.972;12.286;2023-10-08T01:45:12;101227.47;;;8.65;100.00
64827;BME280;51265;53.972;12.286;2023-10-08T01:47:45;101228.00;;;8.57;100.00
64827;BME280;51265;53.972;12.286;2023-10-08T01:50:11;101239.53;;;8.48;100.00
64827;BME280;51265;53.972;12.286;2023-10-08T01:52:48;101255.94;;;8.38;100.00
64827;BME280;51265;53.972;12.286;2023-10-08T01:55:14;101246.03;;;8.32;100.00
64827;BME280;51265;53.972;12.286;2023-10-08T01:57:46;101221.28;;;8.27;100.00
64827;BME280;51265;53.972;12.286;2023-10-08T02:00:13;101210.88;;;8.24;100.00
64827;BME280;51265;53.972;12.286;2023-10-08T02:02:47;101222.31;;;8.11;100.00
64827;BME280;51265;53.972;12.286;2023-10-08T02:05:13;101238.44;;;7.97;100.00
64827;BME280;51265;53.972;12.286;2023-10-08T02:07:45;101241.19;;;7.97;100.00
64827;BME280;51265;53.972;12.286;2023-10-08T02:10:12;101243.94;;;7.97;100.00
64827;BME280;51265;53.972;12.286;2023-10-08T02:12:40;101251.63;;;8.00;100.00
64827;BME280;51265;53.972;12.286;2023-10-08T02:15:07;101244.81;;;8.08;100.00
64827;BME280;51265;53.972;12.286;2023-10-08T02:17:34;101261.84;;;8.15;100.00
64827;BME280;51265;53.972;12.286;2023-10-08T02:20:01;101256.91;;;8.12;100.00
64827;BME280;51265;53.972;12.286;2023-10-08T02:22:31;101257.41;;;7.98;100.00
64827;BME280;51265;53.972;12.286;2023-10-08T02:24:59;101250.22;;;7.92;100.00
64827;BME280;51265;53.972;12.286;2023-10-08T02:27:28;101254.03;;;7.86;100.00
64827;BME280;51265;53.972;12.286;2023-10-08T02:29:54;101267.63;;;7.71;100.00
64827;BME280;51265;53.972;12.286;2023-10-08T02:32:21;101267.00;;;7.59;100.00
64827;BME280;51265;53.972;12.286;2023-10-08T02:34:50;101269.88;;;7.42;100.00
64827;BME280;51265;53.972;12.286;2023-10-08T02:37:17;101267.84;;;7.27;100.00
64827;BME280;51265;53.972;12.286;2023-10-08T02:39:43;101260.09;;;7.19;100.00
64827;BME280;51265;53.972;12.286;2023-10-08T02:42:10;101282.56;;;7.16;100.00
64827;BME280;51265;53.972;12.286;2023-10-08T02:44:37;101289.94;;;7.15;100.00
64827;BME280;51265;53.972;12.286;2023-10-08T02:47:09;101294.03;;;7.13;100.00
64827;BME280;51265;53.972;12.286;2023-10-08T02:49:48;101281.63;;;7.05;100.00
64827;BME280;51265;53.972;12.286;2023-10-08T02:52:14;101288.97;;;6.99;100.00
64827;BME280;51265;53.972;12.286;2023-10-08T02:54:41;101289.97;;;6.93;100.00
64827;BME280;51265;53.972;12.286;2023-10-08T02:57:07;101296.50;;;6.87;100.00
64827;BME280;51265;53.972;12.286;2023-10-08T02:59:40;101312.31;;;6.80;100.00
64827;BME280;51265;53.972;12.286;2023-10-08T03:02:09;101316.31;;;6.72;100.00
64827;BME280;51265;53.972;12.286;2023-10-08T03:04:45;101333.78;;;6.66;100.00
64827;BME280;51265;53.972;12.286;2023-10-08T03:07:15;101346.06;;;6.64;100.00
64827;BME280;51265;53.972;12.286;2023-10-08T03:09:50;101344.09;;;6.59;100.00
64827;BME280;51265;53.972;12.286;2023-10-08T03:12:17;101349.78;;;6.53;100.00
64827;BME280;51265;53.972;12.286;2023-10-08T03:14:44;101351.25;;;6.43;100.00
64827;BME280;51265;53.972;12.286;2023-10-08T03:17:28;101361.59;;;6.36;100.00
64827;BME280;51265;53.972;12.286;2023-10-08T03:19:56;101364.25;;;6.31;100.00
64827;BME280;51265;53.972;12.286;2023-10-08T03:22:48;101365.56;;;6.29;100.00
64827;BME280;51265;53.972;12.286;2023-10-08T03:25:15;101366.06;;;6.26;100.00
64827;BME280;51265;53.972;12.286;2023-10-08T03:27:43;101372.91;;;6.23;100.00
64827;BME280;51265;53.972;12.286;2023-10-08T03:30:10;101369.84;;;6.19;100.00
64827;BME280;51265;53.972;12.286;2023-10-08T03:32:43;101384.81;;;6.17;100.00
64827;BME280;51265;53.972;12.286;2023-10-08T03:35:22;101378.19;;;6.13;100.00
64827;BME280;51265;53.972;12.286;2023-10-08T03:37:54;101377.53;;;6.06;100.00
64827;BME280;51265;53.972;12.286;2023-10-08T03:40:31;101381.84;;;6.02;100.00
64827;BME280;51265;53.972;12.286;2023-10-08T03:43:09;101384.84;;;6.00;100.00
64827;BME280;51265;53.972;12.286;2023-10-08T03:45:46;101392.28;;;6.05;100.00
64827;BME280;51265;53.972;12.286;2023-10-08T03:48:25;101405.22;;;6.09;100.00
64827;BME280;51265;53.972;12.286;2023-10-08T03:50:51;101412.50;;;6.20;100.00
64827;BME280;51265;53.972;12.286;2023-10-08T03:53:32;101417.28;;;6.30;100.00
64827;BME280;51265;53.972;12.286;2023-10-08T03:56:08;101426.16;;;6.37;100.00
64827;BME280;51265;53.972;12.286;2023-10-08T03:58:34;101438.81;;;6.43;100.00
64827;BME280;51265;53.972;12.286;2023-10-08T04:01:07;101435.59;;;6.46;100.00
64827;BME280;51265;53.972;12.286;2023-10-08T04:03:44;101447.13;;;6.48;100.00
64827;BME280;51265;53.972;12.286;2023-10-08T04:06:17;101455.84;;;6.45;100.00
64827;BME280;51265;53.972;12.286;2023-10-08T04:08:48;101443.81;;;6.46;100.00
64827;BME280;51265;53.972;12.286;2023-10-08T04:11:39;101462.41;;;6.44;100.00
64827;BME280;51265;53.972;12.286;2023-10-08T04:14:22;101462.88;;;6.41;100.00
64827;BME280;51265;53.972;12.286;2023-10-08T04:16:49;101463.16;;;6.40;100.00
64827;BME280;51265;53.972;12.286;2023-10-08T04:19:20;101467.88;;;6.44;100.00
64827;BME280;51265;53.972;12.286;2023-10-08T04:21:51;101471.00;;;6.53;100.00
64827;BME280;51265;53.972;12.286;2023-10-08T04:24:21;101474.16;;;6.62;100.00
64827;BME280;51265;53.972;12.286;2023-10-08T04:26:57;101483.19;;;6.62;100.00
64827;BME280;51265;53.972;12.286;2023-10-08T04:29:25;101485.59;;;6.59;100.00
64827;BME280;51265;53.972;12.286;2023-10-08T04:31:52;101482.59;;;6.43;100.00
64827;BME280;51265;53.972;12.286;2023-10-08T04:34:28;101484.63;;;6.31;100.00
64827;BME280;51265;53.972;12.286;2023-10-08T04:36:55;101478.09;;;6.15;100.00
64827;BME280;51265;53.972;12.286;2023-10-08T04:39:23;101470.53;;;6.06;100.00
64827;BME280;51265;53.972;12.286;2023-10-08T04:41:59;101483.63;;;6.04;100.00
64827;BME280;51265;53.972;12.286;2023-10-08T04:44:32;101487.34;;;5.97;100.00
64827;BME280;51265;53.972;12.286;2023-10-08T04:46:58;101491.03;;;5.91;100.00
64827;BME280;51265;53.972;12.286;2023-10-08T04:49:31;101484.88;;;5.84;100.00
64827;BME280;51265;53.972;12.286;2023-10-08T04:52:00;101486.44;;;5.80;100.00
64827;BME280;51265;53.972;12.286;2023-10-08T04:54:28;101496.22;;;5.76;100.00
64827;BME280;51265;53.972;12.286;2023-10-08T04:57:00;101496.13;;;5.71;100.00
64827;BME280;51265;53.972;12.286;2023-10-08T04:59:30;101502.09;;;5.68;100.00
64827;BME280;51265;53.972;12.286;2023-10-08T05:02:03;101508.06;;;5.65;100.00
64827;BME280;51265;53.972;12.286;2023-10-08T05:04:50;101521.94;;;5.63;100.00
64827;BME280;51265;53.972;12.286;2023-10-08T05:07:23;101521.59;;;5.60;100.00
64827;BME280;51265;53.972;12.286;2023-10-08T05:09:53;101525.41;;;5.59;100.00
64827;BME280;51265;53.972;12.286;2023-10-08T05:12:38;101536.34;;;5.59;100.00
64827;BME280;51265;53.972;12.286;2023-10-08T05:15:11;101542.63;;;5.59;100.00
64827;BME280;51265;53.972;12.286;2023-10-08T05:17:41;101543.00;;;5.63;100.00
64827;BME280;51265;53.972;12.286;2023-10-08T05:20:30;101551.78;;;5.65;100.00
64827;BME280;51265;53.972;12.286;2023-10-08T05:23:16;101555.09;;;5.67;100.00
64827;BME280;51265;53.972;12.286;2023-10-08T05:25:57;101562.34;;;5.73;100.00
64827;BME280;51265;53.972;12.286;2023-10-08T05:28:25;101557.25;;;5.65;100.00
64827;BME280;51265;53.972;12.286;2023-10-08T05:30:52;101555.38;;;5.54;100.00
64827;BME280;51265;53.972;12.286;2023-10-08T05:33:37;101563.59;;;5.42;100.00
64827;BME280;51265;53.972;12.286;2023-10-08T05:36:22;101567.53;;;5.34;100.00
64827;BME280;51265;53.972;12.286;2023-10-08T05:39:02;101567.53;;;5.34;100.00
64827;BME280;51265;53.972;12.286;2023-10-08T05:41:51;101572.53;;;5.37;100.00
64827;BME280;51265;53.972;12.286;2023-10-08T05:44:19;101582.97;;;5.40;100.00
64827;BME280;51265;53.972;12.286;2023-10-08T05:46:45;101590.72;;;5.43;100.00
64827;BME280;51265;53.972;12.286;2023-10-08T05:49:22;101595.75;;;5.52;100.00
64827;BME280;51265;53.972;12.286;2023-10-08T05:51:57;101596.00;;;5.62;100.00
64827;BME280;51265;53.972;12.286;2023-10-08T05:54:31;101603.66;;;5.77;100.00
64827;BME280;51265;53.972;12.286;2023-10-08T05:57:05;101604.91;;;5.97;100.00
64827;BME280;51265;53.972;12.286;2023-10-08T05:59:34;101625.06;;;6.20;100.00
64827;BME280;51265;53.972;12.286;2023-10-08T06:02:19;101615.97;;;6.48;100.00
64827;BME280;51265;53.972;12.286;2023-10-08T06:05:02;101622.72;;;6.74;100.00
64827;BME280;51265;53.972;12.286;2023-10-08T06:07:51;101626.75;;;6.88;100.00
64827;BME280;51265;53.972;12.286;2023-10-08T06:10:30;101627.91;;;6.92;100.00
64827;BME280;51265;53.972;12.286;2023-10-08T06:13:10;101631.56;;;6.98;100.00
64827;BME280;51265;53.972;12.286;2023-10-08T06:15:45;101639.69;;;7.10;100.00
64827;BME280;51265;53.972;12.286;2023-10-08T06:18:18;101651.97;;;7.24;100.00
64827;BME280;51265;53.972;12.286;2023-10-08T06:20:45;101664.72;;;7.35;100.00
64827;BME280;51265;53.972;12.286;2023-10-08T06:23:17;101663.13;;;7.39;100.00
64827;BME280;51265;53.972;12.286;2023-10-08T06:25:46;101672.22;;;7.40;100.00
64827;BME280;51265;53.972;12.286;2023-10-08T06:28:17;101682.19;;;7.29;100.00
64827;BME280;51265;53.972;12.286;2023-10-08T06:30:50;101667.50;;;7.02;100.00
64827;BME280;51265;53.972;12.286;2023-10-08T06:33:20;101667.28;;;6.86;100.00
64827;BME280;51265;53.972;12.286;2023-10-08T06:35:47;101669.91;;;6.81;100.00
64827;BME280;51265;53.972;12.286;2023-10-08T06:38:33;101669.41;;;6.84;100.00
64827;BME280;51265;53.972;12.286;2023-10-08T06:41:00;101673.16;;;6.95;100.00
64827;BME280;51265;53.972;12.286;2023-10-08T06:43:27;101675.16;;;6.99;100.00
64827;BME280;51265;53.972;12.286;2023-10-08T06:45:54;101681.38;;;7.12;100.00
64827;BME280;51265;53.972;12.286;2023-10-08T06:48:24;101678.22;;;7.20;100.00
64827;BME280;51265;53.972;12.286;2023-10-08T06:50:52;101683.84;;;7.30;100.00
64827;BME280;51265;53.972;12.286;2023-10-08T06:53:23;101687.25;;;7.37;100.00
64827;BME280;51265;53.972;12.286;2023-10-08T06:55:49;101693.94;;;7.46;100.00
64827;BME280;51265;53.972;12.286;2023-10-08T06:58:25;101688.63;;;7.57;100.00
64827;BME280;51265;53.972;12.286;2023-10-08T07:00:52;101699.66;;;7.62;100.00
64827;BME280;51265;53.972;12.286;2023-10-08T07:03:18;101698.13;;;7.71;100.00
64827;BME280;51265;53.972;12.286;2023-10-08T07:05:46;101696.38;;;7.82;100.00
64827;BME280;51265;53.972;12.286;2023-10-08T07:08:28;101707.78;;;7.95;100.00
64827;BME280;51265;53.972;12.286;2023-10-08T07:10:59;101712.88;;;8.09;100.00
64827;BME280;51265;53.972;12.286;2023-10-08T07:13:27;101710.84;;;8.21;100.00
64827;BME280;51265;53.972;12.286;2023-10-08T07:15:56;101714.84;;;8.35;100.00
64827;BME280;51265;53.972;12.286;2023-10-08T07:18:22;101713.91;;;8.46;100.00
64827;BME280;51265;53.972;12.286;2023-10-08T07:20:53;101717.97;;;8.66;100.00
64827;BME280;51265;53.972;12.286;2023-10-08T07:23:28;101708.81;;;8.87;100.00
64827;BME280;51265;53.972;12.286;2023-10-08T07:26:03;101700.16;;;9.06;100.00
64827;BME280;51265;53.972;12.286;2023-10-08T07:28:40;101700.31;;;9.21;100.00
64827;BME280;51265;53.972;12.286;2023-10-08T07:31:23;101685.56;;;9.37;100.00
64827;BME280;51265;53.972;12.286;2023-10-08T07:33:58;101687.84;;;9.45;100.00
64827;BME280;51265;53.972;12.286;2023-10-08T07:36:42;101679.09;;;9.54;100.00
64827;BME280;51265;53.972;12.286;2023-10-08T07:39:14;101675.81;;;9.62;100.00
64827;BME280;51265;53.972;12.286;2023-10-08T07:42:00;101668.66;;;9.61;100.00
64827;BME280;51265;53.972;12.286;2023-10-08T07:44:27;101668.13;;;9.69;100.00
64827;BME280;51265;53.972;12.286;2023-10-08T07:47:02;101661.00;;;9.73;100.00
64827;BME280;51265;53.972;12.286;2023-10-08T07:49:36;101660.47;;;9.76;100.00
64827;BME280;51265;53.972;12.286;2023-10-08T07:52:02;101664.91;;;9.82;100.00
64827;BME280;51265;53.972;12.286;2023-10-08T07:54:32;101656.69;;;9.92;100.00
64827;BME280;51265;53.972;12.286;2023-10-08T07:57:02;101655.06;;;9.96;100.00
64827;BME280;51265;53.972;12.286;2023-10-08T07:59:52;101635.28;;;10.00;100.00
64827;BME280;51265;53.972;12.286;2023-10-08T08:02:21;101619.88;;;10.09;100.00
64827;BME280;51265;53.972;12.286;2023-10-08T08:04:53;101613.84;;;10.17;100.00
64827;BME280;51265;53.972;12.286;2023-10-08T08:07:19;101594.28;;;10.23;100.00
64827;BME280;51265;53.972;12.286;2023-10-08T08:09:49;101570.94;;;10.26;98.28
64827;BME280;51265;53.972;12.286;2023-10-08T08:12:20;101578.66;;;10.39;97.80
64827;BME280;51265;53.972;12.286;2023-10-08T08:14:47;101564.34;;;10.42;95.43
64827;BME280;51265;53.972;12.286;2023-10-08T08:17:14;101559.13;;;10.51;94.24
64827;BME280;51265;53.972;12.286;2023-10-08T08:19:41;101551.66;;;10.57;94.01
64827;BME280;51265;53.972;12.286;2023-10-08T08:22:09;101542.88;;;10.55;91.74
64827;BME280;51265;53.972;12.286;2023-10-08T08:24:41;101543.94;;;10.74;90.77
64827;BME280;51265;53.972;12.286;2023-10-08T08:27:11;101549.97;;;11.02;89.94
64827;BME280;51265;53.972;12.286;2023-10-08T08:29:51;101535.88;;;11.03;88.84
64827;BME280;51265;53.972;12.286;2023-10-08T08:32:22;101527.91;;;11.02;87.12
64827;BME280;51265;53.972;12.286;2023-10-08T08:34:49;101540.31;;;10.99;87.92
64827;BME280;51265;53.972;12.286;2023-10-08T08:37:17;101552.13;;;11.15;89.46
64827;BME280;51265;53.972;12.286;2023-10-08T08:39:44;101556.28;;;11.02;89.56
64827;BME280;51265;53.972;12.286;2023-10-08T08:42:11;101562.63;;;11.08;90.17
64827;BME280;51265;53.972;12.286;2023-10-08T08:44:41;101560.69;;;11.03;89.42
64827;BME280;51265;53.972;12.286;2023-10-08T08:47:13;101566.13;;;11.39;89.55
64827;BME280;51265;53.972;12.286;2023-10-08T08:49:44;101555.84;;;11.55;87.86
64827;BME280;51265;53.972;12.286;2023-10-08T08:52:14;101543.16;;;11.59;86.07
64827;BME280;51265;53.972;12.286;2023-10-08T08:54:41;101550.50;;;11.84;85.81
64827;BME280;51265;53.972;12.286;2023-10-08T08:57:10;101546.88;;;11.78;85.58
64827;BME280;51265;53.972;12.286;2023-10-08T08:59:53;101524.25;;;11.81;83.60
64827;BME280;51265;53.972;12.286;2023-10-08T09:02:20;101537.19;;;11.96;83.42
64827;BME280;51265;53.972;12.286;2023-10-08T09:04:48;101516.53;;;11.88;82.56
64827;BME280;51265;53.972;12.286;2023-10-08T09:07:14;101512.03;;;11.98;81.16
64827;BME280;51265;53.972;12.286;2023-10-08T09:09:41;101506.66;;;12.16;80.17
64827;BME280;51265;53.972;12.286;2023-10-08T09:12:07;101508.56;;;12.16;80.26
64827;BME280;51265;53.972;12.286;2023-10-08T09:14:37;101496.38;;;12.22;78.64
64827;BME280;51265;53.972;12.286;2023-10-08T09:17:04;101500.44;;;12.35;78.39
64827;BME280;51265;53.972;12.286;2023-10-08T09:19:38;101499.44;;;12.55;78.52
64827;BME280;51265;53.972;12.286;2023-10-08T09:22:06;101516.63;;;13.00;78.69
64827;BME280;51265;53.972;12.286;2023-10-08T09:24:34;101448.78;;;12.88;74.58
64827;BME280;51265;53.972;12.286;2023-10-08T09:27:06;101478.63;;;12.86;74.07
64827;BME280;51265;53.972;12.286;2023-10-08T09:29:34;101491.81;;;12.94;74.61
64827;BME280;51265;53.972;12.286;2023-10-08T09:32:08;101493.47;;;12.95;74.68
64827;BME280;51265;53.972;12.286;2023-10-08T09:34:35;101459.94;;;12.78;72.73
64827;BME280;51265;53.972;12.286;2023-10-08T09:37:02;101474.53;;;12.84;72.89
64827;BME280;51265;53.972;12.286;2023-10-08T09:39:30;101488.13;;;12.80;72.93
64827;BME280;51265;53.972;12.286;2023-10-08T09:42:02;101455.31;;;12.44;71.16
64827;BME280;51265;53.972;12.286;2023-10-08T09:44:37;101475.31;;;12.60;70.30
64827;BME280;51265;53.972;12.286;2023-10-08T09:47:05;101483.22;;;12.72;70.48
64827;BME280;51265;53.972;12.286;2023-10-08T09:49:41;101517.38;;;13.34;70.48
64827;BME280;51265;53.972;12.286;2023-10-08T09:52:10;101484.66;;;13.60;68.74
64827;BME280;51265;53.972;12.286;2023-10-08T09:54:50;101507.13;;;13.59;68.93
64827;BME280;51265;53.972;12.286;2023-10-08T09:57:20;101519.78;;;13.84;69.69
64827;BME280;51265;53.972;12.286;2023-10-08T09:59:48;101537.72;;;13.67;70.41
64827;BME280;51265;53.972;12.286;2023-10-08T10:02:16;101531.31;;;13.48;69.75
64827;BME280;51265;53.972;12.286;2023-10-08T10:04:44;101530.03;;;13.40;69.68
64827;BME280;51265;53.972;12.286;2023-10-08T10:07:12;101510.44;;;13.13;68.93
64827;BME280;51265;53.972;12.286;2023-10-08T10:09:43;101530.25;;;12.67;70.38
64827;BME280;51265;53.972;12.286;2023-10-08T10:12:10;101565.81;;;12.44;71.92
64827;BME280;51265;53.972;12.286;2023-10-08T10:14:52;101600.91;;;12.44;73.25
64827;BME280;51265;53.972;12.286;2023-10-08T10:17:24;101605.13;;;12.31;73.77
64827;BME280;51265;53.972;12.286;2023-10-08T10:19:54;101619.06;;;12.11;74.90
64827;BME280;51265;53.972;12.286;2023-10-08T10:22:29;101599.59;;;11.87;74.35
64827;BME280;51265;53.972;12.286;2023-10-08T10:24:59;101617.81;;;11.88;74.83
64827;BME280;51265;53.972;12.286;2023-10-08T10:27:30;101647.59;;;11.96;75.52
64827;BME280;51265;53.972;12.286;2023-10-08T10:30:03;101620.84;;;11.91;74.57
64827;BME280;51265;53.972;12.286;2023-10-08T10:32:37;101646.22;;;11.93;75.16
64827;BME280;51265;53.972;12.286;2023-10-08T10:35:04;101670.53;;;11.86;76.53
64827;BME280;51265;53.972;12.286;2023-10-08T10:37:37;101681.03;;;11.89;76.29
64827;BME280;51265;53.972;12.286;2023-10-08T10:40:21;101695.25;;;12.22;77.40
64827;BME280;51265;53.972;12.286;2023-10-08T10:42:58;101686.94;;;12.27;75.91
64827;BME280;51265;53.972;12.286;2023-10-08T10:45:30;101682.56;;;12.21;76.61
64827;BME280;51265;53.972;12.286;2023-10-08T10:48:03;101705.56;;;12.56;76.58
64827;BME280;51265;53.972;12.286;2023-10-08T10:50:46;101703.19;;;12.78;76.54
64827;BME280;51265;53.972;12.286;2023-10-08T10:53:48;101715.81;;;12.89;76.92
64827;BME280;51265;53.972;12.286;2023-10-08T10:56:28;101705.41;;;12.76;76.36
64827;BME280;51265;53.972;12.286;2023-10-08T10:58:59;101739.03;;;12.93;77.69
64827;BME280;51265;53.972;12.286;2023-10-08T11:01:26;101753.19;;;13.26;77.68
64827;BME280;51265;53.972;12.286;2023-10-08T11:03:56;101727.81;;;13.48;76.27
64827;BME280;51265;53.972;12.286;2023-10-08T11:06:24;101754.94;;;13.75;77.09
64827;BME280;51265;53.972;12.286;2023-10-08T11:08:52;101727.84;;;14.20;75.16
64827;BME280;51265;53.972;12.286;2023-10-08T11:11:26;101752.34;;;14.93;74.45
64827;BME280;51265;53.972;12.286;2023-10-08T11:13:59;101715.66;;;15.62;71.64
64827;BME280;51265;53.972;12.286;2023-10-08T11:16:29;101698.28;;;16.25;69.07
64827;BME280;51265;53.972;12.286;2023-10-08T11:18:58;101626.09;;;15.70;66.85
64827;BME280;51265;53.972;12.286;2023-10-08T11:21:27;101648.09;;;16.08;67.09
64827;BME280;51265;53.972;12.286;2023-10-08T11:23:58;101618.97;;;16.41;65.33
64827;BME280;51265;53.972;12.286;2023-10-08T11:26:36;101619.91;;;16.73;64.37
64827;BME280;51265;53.972;12.286;2023-10-08T11:29:05;101586.22;;;16.97;62.35
64827;BME280;51265;53.972;12.286;2023-10-08T11:31:32;101555.66;;;16.16;61.96
64827;BME280;51265;53.972;12.286;2023-10-08T11:34:04;101583.44;;;16.16;63.19
64827;BME280;51265;53.972;12.286;2023-10-08T11:36:37;101565.63;;;15.81;63.07
64827;BME280;51265;53.972;12.286;2023-10-08T11:39:15;101545.25;;;15.16;62.79
64827;BME280;51265;53.972;12.286;2023-10-08T11:42:00;101565.94;;;14.64;64.95
64827;BME280;51265;53.972;12.286;2023-10-08T11:44:33;101578.06;;;14.68;65.18
64827;BME280;51265;53.972;12.286;2023-10-08T11:47:03;101571.78;;;14.25;65.69
64827;BME280;51265;53.972;12.286;2023-10-08T11:49:40;101562.19;;;14.17;65.70
64827;BME280;51265;53.972;12.286;2023-10-08T11:52:36;101531.38;;;13.67;64.77
64827;BME280;51265;53.972;12.286;2023-10-08T11:55:11;101539.03;;;13.51;65.51
64827;BME280;51265;53.972;12.286;2023-10-08T11:57:47;101551.28;;;13.45;66.20
64827;BME280;51265;53.972;12.286;2023-10-08T12:00:16;101593.91;;;13.68;67.16
64827;BME280;51265;53.972;12.286;2023-10-08T12:02:46;101608.78;;;14.15;66.92
64827;BME280;51265;53.972;12.286;2023-10-08T12:05:13;101593.19;;;14.57;65.20
64827;BME280;51265;53.972;12.286;2023-10-08T12:07:46;101558.81;;;14.58;64.11
64827;BME280;51265;53.972;12.286;2023-10-08T12:10:15;101594.47;;;14.97;64.75
64827;BME280;51265;53.972;12.286;2023-10-08T12:12:51;101569.72;;;15.28;63.38
64827;BME280;51265;53.972;12.286;2023-10-08T12:15:21;101579.59;;;15.62;63.21
64827;BME280;51265;53.972;12.286;2023-10-08T12:17:48;101603.38;;;16.32;63.27
64827;BME280;51265;53.972;12.286;2023-10-08T12:20:35;101612.75;;;17.03;62.65
64827;BME280;51265;53.972;12.286;2023-10-08T12:23:04;101559.03;;;17.42;60.37
64827;BME280;51265;53.972;12.286;2023-10-08T12:25:32;101543.03;;;17.57;58.55
64827;BME280;51265;53.972;12.286;2023-10-08T12:28:01;101480.44;;;16.66;57.96
64827;BME280;51265;53.972;12.286;2023-10-08T12:30:31;101475.34;;;15.56;59.42
64827;BME280;51265;53.972;12.286;2023-10-08T12:32:59;101514.69;;;15.72;60.03
64827;BME280;51265;53.972;12.286;2023-10-08T12:35:26;101595.34;;;16.30;61.89
64827;BME280;51265;53.972;12.286;2023-10-08T12:37:55;101589.22;;;16.64;60.62
64827;BME280;51265;53.972;12.286;2023-10-08T12:40:21;101563.56;;;16.90;59.97
64827;BME280;51265;53.972;12.286;2023-10-08T12:42:59;101565.09;;;17.05;59.77
64827;BME280;51265;53.972;12.286;2023-10-08T12:45:26;101527.06;;;16.91;58.53
64827;BME280;51265;53.972;12.286;2023-10-08T12:47:53;101527.09;;;16.47;59.68
64827;BME280;51265;53.972;12.286;2023-10-08T12:50:20;101576.00;;;16.70;61.15
64827;BME280;51265;53.972;12.286;2023-10-08T12:52:55;101561.59;;;16.90;60.03
64827;BME280;51265;53.972;12.286;2023-10-08T12:55:22;101591.13;;;17.00;60.54
64827;BME280;51265;53.972;12.286;2023-10-08T12:57:51;101585.25;;;16.79;60.44
64827;BME280;51265;53.972;12.286;2023-10-08T13:00:22;101598.13;;;16.53;61.44
64827;BME280;51265;53.972;12.286;2023-10-08T13:02:52;101589.16;;;16.33;61.75
64827;BME280;51265;53.972;12.286;2023-10-08T13:05:21;101610.09;;;16.53;61.70
64827;BME280;51265;53.972;12.286;2023-10-08T13:07:55;101593.59;;;16.57;60.78
64827;BME280;51265;53.972;12.286;2023-10-08T13:10:22;101602.81;;;16.66;60.78